createdAt,value
2023-01-04T00:01:43.261Z,13.38
2023-01-04T00:04:30.909Z,18.50
2023-01-04T00:07:18.648Z,21.05
2023-01-04T00:10:06.577Z,21.60
2023-01-04T00:12:54.665Z,16.23
2023-01-04T00:15:42.376Z,18.23
2023-01-04T00:18:31.137Z,14.80
2023-01-04T00:21:27.138Z,15.35
2023-01-04T00:24:15.617Z,14.23
2023-01-04T00:27:03.191Z,14.75
2023-01-04T00:29:50.864Z,12.95
2023-01-04T00:32:38.615Z,11.32
2023-01-04T00:35:44.679Z,11.80
2023-01-04T00:38:34.286Z,10.48
2023-01-04T00:41:56.787Z,18.10
2023-01-04T00:44:30.696Z,12.52
2023-01-04T00:47:18.578Z,9.63
2023-01-04T00:50:06.661Z,8.30
2023-01-04T00:52:54.410Z,8.68
2023-01-04T00:55:42.690Z,9.60
2023-01-04T00:58:30.355Z,10.80
2023-01-04T01:01:18.194Z,9.93
2023-01-04T01:04:05.985Z,11.88
2023-01-04T01:06:53.803Z,10.63
2023-01-04T01:09:41.464Z,11.30
2023-01-04T01:12:29.975Z,11.15
2023-01-04T01:15:17.758Z,23.73
2023-01-04T01:18:05.425Z,69.80
2023-01-04T01:20:53.093Z,35.95
2023-01-04T01:23:41.692Z,14.25
2023-01-04T01:26:29.424Z,15.65
2023-01-04T01:29:17.524Z,15.02
2023-01-04T01:32:05.497Z,11.65
2023-01-04T01:34:53.209Z,11.82
2023-01-04T01:37:40.824Z,10.98
2023-01-04T01:40:29.462Z,9.02
2023-01-04T01:43:22.800Z,10.30
2023-01-04T01:46:11.412Z,11.80
2023-01-04T01:49:27.672Z,18.52
2023-01-04T01:52:21.868Z,12.63
2023-01-04T01:55:12.777Z,13.80
2023-01-04T01:58:01.300Z,12.35
2023-01-04T02:00:49.241Z,9.55
2023-01-04T02:03:40.439Z,10.65
2023-01-04T02:06:32.903Z,11.03
2023-01-04T02:09:21.744Z,10.15
2023-01-04T02:12:13.728Z,10.10
2023-01-04T02:15:01.525Z,10.05
2023-01-04T02:18:15.402Z,12.95
2023-01-04T02:21:13.064Z,13.82
2023-01-04T02:24:12.763Z,20.63
2023-01-04T02:27:12.630Z,25.08
2023-01-04T02:30:06.255Z,10.52
2023-01-04T02:33:07.441Z,13.02
2023-01-04T02:36:14.485Z,12.88
2023-01-04T02:39:14.243Z,15.77
2023-01-04T02:42:04.949Z,14.45
2023-01-04T02:45:04.747Z,17.20
2023-01-04T02:48:10.958Z,18.48
2023-01-04T02:51:00.728Z,23.10
2023-01-04T02:53:48.426Z,22.08
2023-01-04T02:57:04.577Z,21.45
2023-01-04T03:00:29.937Z,32.40
2023-01-04T03:03:46.508Z,23.55
2023-01-04T03:06:44.679Z,18.65
2023-01-04T03:09:35.917Z,16.02
2023-01-04T03:12:36.514Z,19.63
2023-01-04T03:15:28.451Z,18.35
2023-01-04T03:18:23.086Z,17.58
2023-01-04T03:21:13.634Z,19.08
2023-01-04T03:24:22.572Z,18.80
2023-01-04T03:27:28.992Z,18.23
2023-01-04T03:30:37.013Z,10.80
2023-01-04T03:33:43.058Z,10.40
2023-01-04T03:36:46.707Z,8.93
2023-01-04T03:40:34.660Z,9.25
2023-01-04T03:43:55.990Z,10.10
2023-01-04T03:47:12.496Z,9.05
2023-01-04T03:50:13.793Z,9.98
2023-01-04T03:53:02.997Z,8.75
2023-01-04T03:55:53.007Z,8.98
2023-01-04T03:58:40.973Z,9.38
2023-01-04T04:01:29.429Z,9.80
2023-01-04T04:04:36.133Z,10.13
2023-01-04T04:07:42.234Z,8.85
2023-01-04T04:10:29.920Z,12.00
2023-01-04T04:13:17.615Z,9.70
2023-01-04T04:16:05.601Z,10.57
2023-01-04T04:18:53.628Z,9.95
2023-01-04T04:21:41.736Z,12.35
2023-01-04T04:24:29.556Z,10.40
2023-01-04T04:27:17.256Z,10.57
2023-01-04T04:30:05.618Z,8.60
2023-01-04T04:32:53.320Z,10.57
2023-01-04T04:35:41.284Z,12.27
2023-01-04T04:38:28.991Z,12.15
2023-01-04T04:41:35.337Z,11.10
2023-01-04T04:44:23.015Z,11.48
2023-01-04T04:47:10.689Z,10.85
2023-01-04T04:49:58.349Z,10.48
2023-01-04T04:52:49.787Z,9.98
2023-01-04T04:55:40.402Z,10.63
2023-01-04T04:58:28.151Z,10.70
2023-01-04T05:01:16.550Z,12.38
2023-01-04T05:04:14.379Z,10.25
2023-01-04T05:07:02.827Z,9.82
2023-01-04T05:09:52.712Z,10.48
2023-01-04T05:12:59.831Z,10.20
2023-01-04T05:15:54.101Z,11.95
2023-01-04T05:18:41.701Z,11.98
2023-01-04T05:21:29.686Z,12.00
2023-01-04T05:24:17.406Z,11.65
2023-01-04T05:27:06.470Z,12.48
2023-01-04T05:30:12.597Z,14.35
2023-01-04T05:33:00.846Z,11.93
2023-01-04T05:35:48.978Z,12.10
2023-01-04T05:38:36.822Z,11.57
2023-01-04T05:41:42.907Z,13.05
2023-01-04T05:44:30.625Z,13.38
2023-01-04T05:47:18.512Z,13.82
2023-01-04T05:50:06.925Z,13.32
2023-01-04T05:52:54.644Z,14.18
2023-01-04T05:55:42.483Z,12.50
2023-01-04T05:58:33.314Z,12.52
2023-01-04T06:01:21.124Z,12.60
2023-01-04T06:04:09.012Z,14.43
2023-01-04T06:06:56.784Z,15.07
2023-01-04T06:14:35.477Z,18.48
2023-01-04T06:17:24.190Z,19.92
2023-01-04T06:20:12.258Z,25.30
2023-01-04T06:23:02.912Z,18.90
2023-01-04T06:25:50.498Z,19.38
2023-01-04T06:28:40.990Z,19.10
2023-01-04T06:31:29.045Z,19.17
2023-01-04T06:34:16.755Z,19.45
2023-01-04T06:37:06.030Z,22.05
2023-01-04T06:39:53.876Z,21.25
2023-01-04T06:42:47.003Z,22.02
2023-01-04T06:45:34.561Z,23.13
2023-01-04T06:48:22.251Z,23.30
2023-01-04T06:51:10.120Z,24.38
2023-01-04T06:53:57.763Z,23.98
2023-01-04T06:56:45.531Z,23.05
2023-01-04T06:59:33.112Z,23.05
2023-01-04T07:02:21.781Z,23.95
2023-01-04T07:05:09.753Z,22.85
2023-01-04T07:08:07.405Z,24.20
2023-01-04T07:10:55.818Z,24.48
2023-01-04T07:13:43.394Z,24.63
2023-01-04T07:16:30.996Z,24.63
2023-01-04T07:19:18.912Z,20.95
2023-01-04T07:22:06.441Z,21.42
2023-01-04T07:24:54.055Z,23.30
2023-01-04T07:27:41.566Z,23.35
2023-01-04T07:30:29.359Z,23.65
2023-01-04T07:33:17.416Z,25.65
2023-01-04T07:36:06.712Z,26.48
2023-01-04T07:38:54.457Z,24.58
2023-01-04T07:41:43.033Z,21.73
2023-01-04T07:44:31.693Z,19.20
2023-01-04T07:47:19.508Z,13.95
2023-01-04T07:50:07.687Z,13.48
2023-01-04T07:52:55.251Z,11.82
2023-01-04T07:55:42.812Z,11.45
2023-01-04T07:58:34.599Z,10.75
2023-01-04T08:01:22.301Z,10.80
2023-01-04T08:04:12.340Z,10.63
2023-01-04T08:07:02.170Z,10.77
2023-01-04T08:09:49.750Z,11.10
2023-01-04T08:12:41.369Z,9.23
2023-01-04T08:15:34.634Z,11.05
2023-01-04T08:18:22.213Z,10.10
2023-01-04T08:21:09.924Z,9.73
2023-01-04T08:23:57.676Z,11.13
2023-01-04T08:26:48.736Z,9.82
2023-01-04T08:32:40.999Z,7.63
2023-01-04T08:35:28.566Z,11.05
2023-01-04T08:38:57.554Z,8.65
2023-01-04T08:41:55.933Z,8.05
2023-01-04T08:44:32.111Z,7.95
2023-01-04T08:47:19.698Z,9.65
2023-01-04T08:50:11.154Z,9.13
2023-01-04T08:52:58.807Z,10.40
2023-01-04T08:55:51.597Z,10.98
2023-01-04T08:58:39.391Z,8.07
2023-01-04T09:01:27.191Z,8.27
2023-01-04T09:04:14.905Z,7.97
2023-01-04T09:07:02.534Z,9.98
2023-01-04T09:09:50.148Z,9.20
2023-01-04T09:12:37.903Z,8.50
2023-01-04T09:15:25.730Z,8.88
2023-01-04T09:18:31.612Z,10.23
2023-01-04T09:21:22.291Z,10.10
2023-01-04T09:24:10.089Z,10.65
2023-01-04T09:26:57.682Z,11.77
2023-01-04T09:29:45.362Z,8.68
2023-01-04T09:32:33.995Z,9.30
2023-01-04T09:35:21.705Z,10.55
2023-01-04T09:38:09.285Z,9.15
2023-01-04T09:41:25.877Z,8.88
2023-01-04T09:44:54.452Z,9.98
2023-01-04T09:50:53.157Z,8.77
2023-01-04T09:53:49.947Z,9.45
2023-01-04T09:56:42.334Z,13.68
2023-01-04T09:59:32.475Z,13.05
2023-01-04T10:02:30.599Z,14.20
2023-01-04T10:05:21.962Z,10.52
2023-01-04T10:08:18.517Z,12.60
2023-01-04T10:11:43.472Z,20.70
2023-01-04T10:15:04.677Z,14.65
2023-01-04T10:21:40.716Z,14.32
2023-01-04T10:25:00.338Z,14.15
2023-01-04T10:28:03.591Z,17.00
2023-01-04T10:31:40.149Z,17.35
2023-01-04T10:34:43.686Z,16.70
2023-01-04T10:37:35.923Z,17.27
2023-01-04T10:44:11.428Z,17.55
2023-01-04T10:46:52.183Z,19.92
2023-01-04T10:49:49.535Z,20.92
2023-01-04T10:52:37.098Z,20.65
2023-01-04T10:56:24.491Z,20.65
2023-01-04T10:58:59.330Z,22.92
2023-01-04T11:01:59.211Z,23.80
2023-01-04T11:04:49.753Z,24.40
2023-01-04T11:07:41.854Z,24.33
2023-01-04T11:10:39.140Z,24.38
2023-01-04T11:13:26.957Z,25.58
2023-01-04T11:16:14.650Z,24.35
2023-01-04T11:19:04.504Z,22.52
2023-01-04T11:22:10.579Z,25.45
2023-01-04T11:28:23.265Z,24.83
2023-01-04T11:31:17.841Z,25.33
2023-01-04T11:34:06.947Z,23.55
2023-01-04T11:36:54.627Z,25.75
2023-01-04T11:39:45.230Z,27.40
2023-01-04T11:43:11.785Z,27.73
2023-01-04T11:46:19.971Z,27.20
2023-01-04T11:49:42.422Z,26.85
2023-01-04T11:52:35.883Z,26.65
2023-01-04T11:56:13.554Z,26.52
2023-01-04T12:03:40.334Z,21.10
2023-01-04T12:06:48.212Z,22.90
2023-01-04T12:09:35.742Z,22.95
2023-01-04T12:12:28.953Z,22.15
2023-01-04T12:15:32.554Z,23.65
2023-01-04T12:18:26.839Z,21.20
2023-01-04T12:21:26.498Z,22.23
2023-01-04T12:24:21.634Z,19.70
2023-01-04T12:27:15.069Z,19.58
2023-01-04T12:30:06.175Z,19.52
2023-01-04T12:32:53.961Z,20.52
2023-01-04T12:35:59.749Z,21.77
2023-01-04T12:38:53.135Z,20.92
2023-01-04T12:42:01.792Z,21.00
2023-01-04T12:44:52.342Z,21.63
2023-01-04T12:47:58.840Z,20.50
2023-01-04T12:51:34.257Z,19.90
2023-01-04T12:54:32.329Z,19.50
2023-01-04T12:57:23.484Z,22.08
2023-01-04T13:00:13.317Z,22.35
2023-01-04T13:03:18.791Z,22.73
2023-01-04T13:06:09.212Z,20.73
2023-01-04T13:08:56.848Z,20.75
2023-01-04T13:12:36.697Z,20.23
2023-01-04T13:15:45.930Z,22.40
2023-01-04T13:18:35.268Z,22.52
2023-01-04T13:21:33.965Z,19.60
2023-01-04T13:24:28.449Z,20.88
2023-01-04T13:27:19.847Z,20.55
2023-01-04T13:30:27.522Z,22.37
2023-01-04T13:33:27.793Z,23.00
2023-01-04T13:36:16.595Z,20.83
2023-01-04T13:39:08.097Z,21.85
2023-01-04T13:41:59.617Z,25.05
2023-01-04T13:45:21.183Z,22.63
2023-01-04T13:48:13.026Z,23.17
2023-01-04T13:51:04.282Z,26.73
2023-01-04T13:53:57.029Z,23.20
2023-01-04T13:56:49.696Z,21.20
2023-01-04T13:59:41.153Z,21.60
2023-01-04T14:02:29.791Z,19.73
2023-01-04T14:05:18.576Z,22.90
2023-01-04T14:08:13.240Z,22.25
2023-01-04T14:11:01.691Z,21.52
2023-01-04T14:13:49.404Z,22.80
2023-01-04T14:16:37.135Z,24.45
2023-01-04T14:19:41.398Z,26.10
2023-01-04T14:22:33.252Z,23.70
2023-01-04T14:25:48.684Z,23.23
2023-01-04T14:28:43.134Z,23.45
2023-01-04T14:31:37.493Z,22.48
2023-01-04T14:34:27.621Z,22.92
2023-01-04T14:37:15.527Z,22.15
2023-01-04T14:40:15.234Z,23.15
2023-01-04T14:43:02.971Z,22.58
2023-01-04T14:45:50.950Z,21.17
2023-01-04T14:48:38.663Z,21.90
2023-01-04T14:51:41.218Z,23.98
